首页
METAR-TAF:

METAR-TAF

机场 :

埃森博阿国际机场

安卡拉埃森博阿, 土耳其

纬度: 40-07N, 经度: 032-59E, 海拔: 953米

当前天气观测

该预报发布于49分钟前的23:20 UTC
风速1节,风向多变
温度 16°C
湿度 88%
气压 1015 hPa
能见度10公里或以上
散云层高于3000英尺
散云层高于10000英尺

METAR: LTAC 192320Z VRB01KT 9999 SCT030 SCT100 16/14 Q1015 NOSIG RMK RWY21L 07004KT RWY03L VRB01KT RWY21R 06004KT 020V090

时间: 03:09 (00:09 UTC)

预报

该预报发布于1小时和29分钟前的22:40 UTC
预报有效从20日的 00点(UTC)到 20日的 24点(UTC)
风速2节,风向多变
能见度10公里或以上
散云层高于4000英尺
短暂存在
从 20日的 00点(UTC)到 20日的 04点(UTC)
少量云层高于2500英尺, 积雨云.
多云层高于3000英尺
小阵雨
短暂存在
从 20日的 07点(UTC)到 20日的 11点(UTC)
少量云层高于2500英尺, 积雨云.
多云层高于3000英尺
小阵雨
短暂存在
从 20日的 12点(UTC)到 20日的 16点(UTC)
风速15节,风向,有时为25节阵风
少量云层高于2500英尺, 积雨云.
多云层高于3000英尺
雷暴, 小雨

TAF: LTAC 192240Z 2000/2024 VRB02KT 9999 SCT040 TEMPO 2000/2004 -SHRA FEW025CB BKN030 TEMPO 2007/2011 -SHRA FEW025CB BKN030 TEMPO 2012/2016 01015G25KT -TSRA FEW025CB BKN030

超过4000个机场的气象观测和天气预报(METAR&TAF报告)。

可查询的气象台以黄色和红色小点在地图上表示。

将鼠标移到小点上方,可查看气象台名称。

然后点击查看天气观测和预报。

如需切换地图:点击带黑十字的绿色按钮放大地图;点击带横线的绿色按钮缩小地图;或者点击绿色箭头查看邻近地区的地图。


METAR-TAF: